createdAt,value
2023-05-14T00:00:14.121Z,69.27
2023-05-14T00:02:55.984Z,63.97
2023-05-14T00:05:33.332Z,61.43
2023-05-14T00:08:12.585Z,62.60
2023-05-14T00:10:49.459Z,54.03
2023-05-14T00:13:29.750Z,63.67
2023-05-14T00:16:06.486Z,59.57
2023-05-14T00:18:45.565Z,55.47
2023-05-14T00:21:24.765Z,55.13
2023-05-14T00:23:59.644Z,58.77
2023-05-14T00:26:36.358Z,59.30
2023-05-14T00:29:12.719Z,74.40
2023-05-14T00:31:48.115Z,66.80
2023-05-14T00:34:27.199Z,62.47
2023-05-14T00:37:05.380Z,63.50
2023-05-14T00:39:46.450Z,63.87
2023-05-14T00:42:24.172Z,68.03
2023-05-14T00:45:03.459Z,75.23
2023-05-14T00:47:46.931Z,74.43
2023-05-14T00:50:28.661Z,64.80
2023-05-14T00:53:15.376Z,63.20
2023-05-14T00:55:56.975Z,64.93
2023-05-14T00:58:37.821Z,66.37
2023-05-14T01:01:18.314Z,72.23
2023-05-14T01:04:06.184Z,65.57
2023-05-14T01:06:50.135Z,68.63
2023-05-14T01:09:37.693Z,71.85
2023-05-14T01:12:30.048Z,70.72
2023-05-14T01:15:15.947Z,69.20
2023-05-14T01:18:11.052Z,64.72
2023-05-14T01:20:47.589Z,74.30
2023-05-14T01:23:41.289Z,64.72
2023-05-14T01:26:18.637Z,68.95
2023-05-14T01:28:57.923Z,64.10
2023-05-14T01:31:50.172Z,70.55
2023-05-14T01:34:33.839Z,64.38
2023-05-14T01:37:11.648Z,65.85
2023-05-14T01:39:57.793Z,64.43
2023-05-14T01:42:43.645Z,69.97
2023-05-14T01:45:25.284Z,57.42
2023-05-14T01:48:00.425Z,63.25
2023-05-14T01:50:38.981Z,65.05
2023-05-14T01:53:16.739Z,56.30
2023-05-14T01:56:09.127Z,59.35
2023-05-14T01:58:54.050Z,66.55
2023-05-14T02:01:29.688Z,64.32
2023-05-14T02:04:07.907Z,57.75
2023-05-14T02:06:45.716Z,55.55
2023-05-14T02:09:35.292Z,64.47
2023-05-14T02:12:17.687Z,58.50
2023-05-14T02:14:52.962Z,66.70
2023-05-14T02:17:31.635Z,65.57
2023-05-14T02:20:06.018Z,70.60
2023-05-14T02:22:49.441Z,59.30
2023-05-14T02:25:29.522Z,60.42
2023-05-14T02:28:11.312Z,65.57
2023-05-14T02:30:47.506Z,57.83
2023-05-14T02:33:25.198Z,51.97
2023-05-14T02:36:18.380Z,54.15
2023-05-14T02:39:00.134Z,52.97
2023-05-14T02:41:43.655Z,55.38
2023-05-14T02:44:20.386Z,66.32
2023-05-14T02:47:10.560Z,53.13
2023-05-14T02:49:55.206Z,58.25
2023-05-14T02:52:47.139Z,52.28
2023-05-14T02:55:26.095Z,47.70
2023-05-14T02:58:08.072Z,51.92
2023-05-14T03:00:53.695Z,45.63
2023-05-14T03:06:48.637Z,45.90
2023-05-14T03:09:35.027Z,49.03
2023-05-14T03:12:14.304Z,49.28
2023-05-14T03:15:01.902Z,49.03
2023-05-14T03:17:44.318Z,43.33
2023-05-14T03:20:22.570Z,49.97
2023-05-14T03:22:57.835Z,55.58
2023-05-14T03:25:37.402Z,48.97
2023-05-14T03:28:23.446Z,56.40
2023-05-14T03:31:03.459Z,52.05
2023-05-14T03:33:43.155Z,46.45
2023-05-14T03:36:21.872Z,44.30
2023-05-14T03:39:04.525Z,57.17
2023-05-14T03:41:42.286Z,47.53
2023-05-14T03:44:30.344Z,48.40
2023-05-14T03:47:12.796Z,56.47
2023-05-14T03:49:51.722Z,44.58
2023-05-14T03:52:34.717Z,48.75
2023-05-14T03:55:16.352Z,51.80
2023-05-14T03:58:01.535Z,48.50
2023-05-14T04:00:40.652Z,93.85
2023-05-14T04:03:16.130Z,46.53
2023-05-14T04:05:57.130Z,49.05
2023-05-14T04:08:33.859Z,57.72
2023-05-14T04:11:12.694Z,54.63
2023-05-14T04:13:54.316Z,49.40
2023-05-14T04:16:40.159Z,51.45
2023-05-14T04:19:21.592Z,61.35
2023-05-14T04:22:00.428Z,54.22
2023-05-14T04:24:39.123Z,56.88
2023-05-14T04:27:37.215Z,60.10
2023-05-14T04:30:36.869Z,60.58
2023-05-14T04:33:16.956Z,54.90
2023-05-14T04:36:03.977Z,54.22
2023-05-14T04:38:53.713Z,63.65
2023-05-14T04:41:33.196Z,54.50
2023-05-14T04:44:16.611Z,57.75
2023-05-14T04:46:52.907Z,50.13
2023-05-14T04:49:38.459Z,47.45
2023-05-14T04:52:25.916Z,45.50
2023-05-14T04:55:04.556Z,47.10
2023-05-14T04:57:42.397Z,56.20
2023-05-14T05:00:35.022Z,46.42
2023-05-14T05:03:13.276Z,41.80
2023-05-14T05:05:54.043Z,40.67
2023-05-14T05:08:30.787Z,44.42
2023-05-14T05:11:16.369Z,45.25
2023-05-14T05:13:56.530Z,29.85
2023-05-14T05:16:43.689Z,34.83
2023-05-14T05:19:42.416Z,37.95
2023-05-14T05:22:27.775Z,32.38
2023-05-14T05:25:09.027Z,30.77
2023-05-14T05:27:50.181Z,30.92
2023-05-14T05:30:36.151Z,25.23
2023-05-14T05:33:21.640Z,28.55
2023-05-14T05:36:00.803Z,33.47
2023-05-14T05:38:37.893Z,29.08
2023-05-14T05:41:21.793Z,28.92
2023-05-14T05:44:02.593Z,26.17
2023-05-14T05:46:59.293Z,34.97
2023-05-14T05:50:02.815Z,32.90
2023-05-14T05:52:49.205Z,26.80
2023-05-14T05:55:37.234Z,31.23
2023-05-14T05:58:13.231Z,24.70
2023-05-14T06:00:52.302Z,33.78
2023-05-14T06:03:48.395Z,37.50
2023-05-14T06:06:49.753Z,30.15
2023-05-14T06:09:43.581Z,31.40
2023-05-14T06:12:25.495Z,29.60
2023-05-14T06:15:03.413Z,31.95
2023-05-14T06:17:41.093Z,26.98
2023-05-14T06:20:32.566Z,24.92
2023-05-14T06:23:15.410Z,27.67
2023-05-14T06:26:00.629Z,28.70
2023-05-14T06:28:43.560Z,30.42
2023-05-14T06:31:22.056Z,20.98
2023-05-14T06:34:04.048Z,27.52
2023-05-14T06:36:45.704Z,30.50
2023-05-14T06:39:41.205Z,32.30
2023-05-14T06:42:31.157Z,28.30
2023-05-14T06:45:18.060Z,28.98
2023-05-14T06:48:06.961Z,21.58
2023-05-14T06:50:49.250Z,28.88
2023-05-14T06:53:36.341Z,26.02
2023-05-14T06:56:19.016Z,31.85
2023-05-14T06:59:02.637Z,31.80
2023-05-14T07:01:44.341Z,25.42
2023-05-14T07:04:25.606Z,23.02
2023-05-14T07:07:05.708Z,25.55
2023-05-14T07:09:48.445Z,26.50
2023-05-14T07:12:30.118Z,30.70
2023-05-14T07:15:16.457Z,25.17
2023-05-14T07:17:58.539Z,29.83
2023-05-14T07:20:41.080Z,25.30
2023-05-14T07:23:18.495Z,25.90
2023-05-14T07:26:32.210Z,26.33
2023-05-14T07:29:21.407Z,23.65
2023-05-14T07:32:14.039Z,24.73
2023-05-14T07:35:10.880Z,29.17
2023-05-14T07:37:49.401Z,23.40
2023-05-14T07:40:28.212Z,29.60
2023-05-14T07:43:13.375Z,32.58
2023-05-14T07:46:00.162Z,34.53
2023-05-14T07:48:49.882Z,25.13
2023-05-14T07:54:22.729Z,27.10
2023-05-14T07:57:02.437Z,32.75
2023-05-14T07:59:46.155Z,30.85
2023-05-14T08:02:29.091Z,34.67
2023-05-14T08:05:11.621Z,31.00
2023-05-14T08:07:54.303Z,30.42
2023-05-14T08:10:33.799Z,38.35
2023-05-14T08:13:24.333Z,34.08
2023-05-14T08:16:03.766Z,35.45
2023-05-14T08:18:48.262Z,30.15
2023-05-14T08:21:26.474Z,31.35
2023-05-14T08:24:04.662Z,26.90
2023-05-14T08:26:49.750Z,29.67
2023-05-14T08:29:27.403Z,32.40
2023-05-14T08:32:19.355Z,29.58
2023-05-14T08:35:06.211Z,38.42
2023-05-14T08:37:46.542Z,31.17
2023-05-14T08:40:25.283Z,26.05
2023-05-14T08:43:04.276Z,29.87
2023-05-14T08:45:43.859Z,26.17
2023-05-14T08:48:30.015Z,27.37
2023-05-14T08:51:25.882Z,30.83
2023-05-14T08:54:08.939Z,27.67
2023-05-14T08:56:57.832Z,27.70
2023-05-14T08:59:41.034Z,30.40
2023-05-14T09:02:29.343Z,29.80
2023-05-14T09:05:08.824Z,33.83
2023-05-14T09:07:52.026Z,34.93
2023-05-14T09:10:31.871Z,44.23
2023-05-14T09:13:14.882Z,34.53
2023-05-14T09:15:52.182Z,36.67
2023-05-14T09:18:34.332Z,37.10
2023-05-14T09:21:14.957Z,33.73
2023-05-14T09:24:02.667Z,42.40
2023-05-14T09:26:42.113Z,39.07
2023-05-14T09:29:33.462Z,42.27
2023-05-14T09:32:13.015Z,35.43
2023-05-14T09:34:48.614Z,36.83
2023-05-14T09:37:32.049Z,33.40
2023-05-14T09:40:24.278Z,28.60
2023-05-14T09:43:12.734Z,34.97
2023-05-14T09:45:52.326Z,30.50
2023-05-14T09:48:42.751Z,31.13
2023-05-14T09:51:33.402Z,35.83
2023-05-14T09:54:14.057Z,41.43
2023-05-14T09:56:56.044Z,33.70
2023-05-14T09:59:32.438Z,33.20
2023-05-14T10:02:28.601Z,31.47
2023-05-14T10:05:10.651Z,29.07
2023-05-14T10:07:53.224Z,34.37
2023-05-14T10:10:33.114Z,33.13
2023-05-14T10:13:21.797Z,33.13
2023-05-14T10:16:03.818Z,30.47
2023-05-14T10:18:45.003Z,29.93
2023-05-14T10:21:25.192Z,26.30
2023-05-14T10:24:05.903Z,30.60
2023-05-14T10:26:53.950Z,27.43
2023-05-14T10:29:39.216Z,31.50
2023-05-14T10:32:15.699Z,31.93
2023-05-14T10:35:17.554Z,32.20
2023-05-14T10:37:57.090Z,34.53
2023-05-14T10:40:38.553Z,33.07
2023-05-14T10:43:19.655Z,27.90
2023-05-14T10:46:07.268Z,30.43
2023-05-14T10:48:50.583Z,31.57
2023-05-14T10:51:38.339Z,34.23
2023-05-14T10:54:25.330Z,32.77
2023-05-14T10:57:08.611Z,36.53
2023-05-14T10:59:47.474Z,35.67
2023-05-14T11:02:30.472Z,34.13
2023-05-14T11:05:12.981Z,39.97
2023-05-14T11:07:49.691Z,40.67
2023-05-14T11:10:49.658Z,34.67
2023-05-14T11:13:26.560Z,36.57
2023-05-14T11:18:54.508Z,41.77
2023-05-14T11:21:39.586Z,43.03
2023-05-14T11:24:29.546Z,48.63
2023-05-14T11:27:27.939Z,44.90
2023-05-14T11:30:37.008Z,49.37
2023-05-14T11:33:37.363Z,38.63
2023-05-14T11:36:37.477Z,39.70
2023-05-14T11:39:12.204Z,42.37
2023-05-14T11:41:51.714Z,41.10
2023-05-14T11:44:34.123Z,41.23
2023-05-14T11:47:18.475Z,47.93
2023-05-14T11:50:11.952Z,43.77
2023-05-14T11:53:02.426Z,45.80
2023-05-14T11:56:00.618Z,39.47
2023-05-14T11:58:38.121Z,47.10
2023-05-14T12:01:17.706Z,38.73
2023-05-14T12:04:08.492Z,46.47
2023-05-14T12:06:48.155Z,43.83
2023-05-14T12:09:43.551Z,41.63
2023-05-14T12:12:30.882Z,50.20
2023-05-14T12:15:45.667Z,44.77
2023-05-14T12:18:34.566Z,39.70
2023-05-14T12:21:14.704Z,50.03
2023-05-14T12:24:04.449Z,40.20
2023-05-14T12:26:57.467Z,42.10
2023-05-14T12:32:46.558Z,45.83
2023-05-14T12:35:24.145Z,45.83
2023-05-14T12:38:06.420Z,37.10
2023-05-14T12:40:46.873Z,41.77
2023-05-14T12:43:33.624Z,46.23
2023-05-14T12:46:24.744Z,45.17
2023-05-14T12:49:10.352Z,39.80
2023-05-14T12:52:04.487Z,46.63
2023-05-14T12:54:54.959Z,46.87
2023-05-14T12:57:39.573Z,41.43
2023-05-14T13:00:40.170Z,51.20
2023-05-14T13:03:30.791Z,45.00
2023-05-14T13:06:09.731Z,52.17
2023-05-14T13:08:57.258Z,48.13
2023-05-14T13:11:35.620Z,52.00
2023-05-14T13:14:20.546Z,56.93
2023-05-14T13:17:08.416Z,54.63
2023-05-14T13:19:57.393Z,43.93
2023-05-14T13:22:38.561Z,52.87
2023-05-14T13:25:22.740Z,61.43
2023-05-14T13:28:06.037Z,51.27
2023-05-14T13:30:55.020Z,49.20
2023-05-14T13:33:45.119Z,49.13
2023-05-14T13:36:40.968Z,43.23
2023-05-14T13:39:36.965Z,61.93
2023-05-14T13:42:17.316Z,52.33
2023-05-14T13:45:00.574Z,49.10
2023-05-14T13:47:43.666Z,48.47
2023-05-14T13:50:38.499Z,52.70
2023-05-14T13:53:22.352Z,54.80
2023-05-14T13:56:14.666Z,51.77
2023-05-14T13:58:55.225Z,54.90
2023-05-14T14:01:38.296Z,50.60
2023-05-14T14:04:21.185Z,50.40
2023-05-14T14:07:14.481Z,46.17
2023-05-14T14:10:08.650Z,52.10
2023-05-14T14:12:51.741Z,52.57
2023-05-14T14:15:44.811Z,62.77
2023-05-14T14:18:24.030Z,52.53
2023-05-14T14:21:21.511Z,52.93
2023-05-14T14:24:01.077Z,46.70
2023-05-14T14:26:38.191Z,62.13
2023-05-14T14:29:18.033Z,51.57
2023-05-14T14:32:12.680Z,55.50
2023-05-14T14:34:58.145Z,48.00
2023-05-14T14:37:39.384Z,56.23
2023-05-14T14:40:45.568Z,43.90
2023-05-14T14:43:31.206Z,51.77
2023-05-14T14:46:17.320Z,52.80
2023-05-14T14:49:15.614Z,51.80
2023-05-14T14:51:59.622Z,48.60
2023-05-14T14:54:47.019Z,48.17
2023-05-14T14:57:56.468Z,49.07
2023-05-14T15:00:47.842Z,53.27
2023-05-14T15:03:27.053Z,45.83
2023-05-14T15:06:28.094Z,49.70
2023-05-14T15:09:09.537Z,53.10
2023-05-14T15:11:46.309Z,53.70
2023-05-14T15:14:48.059Z,54.17
2023-05-14T15:17:34.220Z,48.93
2023-05-14T15:20:15.282Z,49.20
2023-05-14T15:22:57.900Z,53.87
2023-05-14T15:25:51.726Z,46.77
2023-05-14T15:28:33.979Z,52.87
2023-05-14T15:31:21.579Z,50.33
2023-05-14T15:34:06.616Z,54.97
2023-05-14T15:36:47.218Z,53.10
2023-05-14T15:39:31.194Z,51.23
2023-05-14T15:42:28.820Z,46.83
2023-05-14T15:45:14.785Z,66.10
2023-05-14T15:47:57.399Z,51.80
2023-05-14T15:50:43.241Z,51.17
2023-05-14T15:53:29.562Z,53.73
2023-05-14T15:56:24.125Z,54.63
2023-05-14T15:59:04.688Z,55.47
2023-05-14T16:01:40.706Z,55.93
2023-05-14T16:04:56.575Z,51.70
2023-05-14T16:07:33.416Z,53.07
2023-05-14T16:10:17.748Z,57.37
2023-05-14T16:13:08.643Z,56.47
2023-05-14T16:15:52.512Z,54.53
2023-05-14T16:18:29.627Z,59.17
2023-05-14T16:21:16.658Z,59.67
2023-05-14T16:24:03.442Z,54.43
2023-05-14T16:26:57.917Z,52.53
2023-05-14T16:29:42.142Z,56.30
2023-05-14T16:32:23.542Z,48.07
2023-05-14T16:35:09.146Z,60.40
2023-05-14T16:37:49.784Z,58.20
2023-05-14T16:40:40.025Z,62.53
2023-05-14T16:43:14.490Z,59.67
2023-05-14T16:45:58.484Z,73.00
2023-05-14T16:48:39.475Z,66.93
2023-05-14T16:51:18.699Z,60.50
2023-05-14T16:54:03.269Z,69.67
2023-05-14T16:56:45.307Z,64.30
2023-05-14T16:59:24.539Z,67.00
2023-05-14T17:02:07.374Z,77.57
2023-05-14T17:04:43.295Z,70.40
2023-05-14T17:07:24.000Z,81.67
2023-05-14T17:10:04.553Z,82.00
2023-05-14T17:12:48.653Z,82.70
2023-05-14T17:15:26.540Z,85.87
2023-05-14T17:18:08.957Z,89.17
2023-05-14T17:20:49.500Z,77.00
2023-05-14T17:23:25.327Z,88.37
2023-05-14T17:26:08.370Z,82.50
2023-05-14T17:28:43.474Z,85.80
2023-05-14T17:31:30.918Z,91.10
2023-05-14T17:34:10.815Z,86.40
2023-05-14T17:36:47.666Z,86.80
2023-05-14T17:39:29.361Z,90.67
2023-05-14T17:42:08.014Z,84.47
2023-05-14T17:44:51.333Z,77.87
2023-05-14T17:47:33.515Z,87.40
2023-05-14T17:50:19.919Z,77.30
2023-05-14T17:53:02.285Z,83.67
2023-05-14T17:55:45.152Z,80.50
2023-05-14T17:58:26.653Z,76.07
2023-05-14T18:01:02.658Z,81.33
2023-05-14T18:03:40.455Z,88.20
2023-05-14T18:06:21.661Z,85.30
2023-05-14T18:08:56.116Z,84.67
2023-05-14T18:11:35.212Z,78.87
2023-05-14T18:14:19.197Z,79.17
2023-05-14T18:16:57.033Z,85.60
2023-05-14T18:19:36.095Z,85.97
2023-05-14T18:22:11.573Z,80.87
2023-05-14T18:24:51.948Z,88.57
2023-05-14T18:27:26.519Z,93.60
2023-05-14T18:30:10.312Z,79.27
2023-05-14T18:32:47.869Z,83.37
2023-05-14T18:35:26.617Z,81.73
2023-05-14T18:38:04.017Z,84.43
2023-05-14T18:40:40.693Z,85.93
2023-05-14T18:43:18.044Z,81.63
2023-05-14T18:45:56.095Z,91.47
2023-05-14T18:48:31.693Z,89.83
2023-05-14T18:51:07.018Z,75.07
2023-05-14T18:53:46.319Z,94.63
2023-05-14T18:56:21.994Z,84.87
2023-05-14T18:58:58.282Z,80.07
2023-05-14T19:01:35.032Z,79.30
2023-05-14T19:04:15.265Z,88.13
2023-05-14T19:06:52.247Z,87.33
2023-05-14T19:09:27.863Z,84.97
2023-05-14T19:12:03.981Z,88.37
2023-05-14T19:14:38.837Z,86.67
2023-05-14T19:17:19.937Z,79.60
2023-05-14T19:19:55.621Z,90.70
2023-05-14T19:22:29.011Z,82.30
2023-05-14T19:25:04.371Z,81.27
2023-05-14T19:27:42.829Z,78.30
2023-05-14T19:30:19.449Z,87.37
2023-05-14T19:32:55.873Z,76.53
2023-05-14T19:35:30.912Z,79.70
2023-05-14T19:38:06.137Z,87.67
2023-05-14T19:40:41.996Z,82.33
2023-05-14T19:43:17.607Z,81.47
2023-05-14T19:46:00.529Z,80.13
2023-05-14T19:48:36.331Z,83.27
2023-05-14T19:51:14.003Z,82.37
2023-05-14T19:53:51.185Z,80.23
2023-05-14T19:56:28.541Z,94.00
2023-05-14T19:59:05.274Z,80.70
2023-05-14T20:01:39.988Z,74.03
2023-05-14T20:04:18.708Z,87.07
2023-05-14T20:06:55.892Z,84.73
2023-05-14T20:09:30.171Z,85.30
2023-05-14T20:12:11.033Z,82.63
2023-05-14T20:14:45.057Z,81.10
2023-05-14T20:17:19.656Z,81.80
2023-05-14T20:19:56.981Z,87.10
2023-05-14T20:22:31.158Z,84.90
2023-05-14T20:25:08.482Z,89.33
2023-05-14T20:27:44.529Z,89.30
2023-05-14T20:30:18.384Z,91.33
2023-05-14T20:32:56.562Z,89.37
2023-05-14T20:35:32.405Z,105.30
2023-05-14T20:38:11.557Z,89.17
2023-05-14T20:40:47.924Z,87.90
2023-05-14T20:43:34.187Z,93.57
2023-05-14T20:46:10.580Z,101.87
2023-05-14T20:48:45.058Z,97.13
2023-05-14T20:51:26.194Z,95.90
2023-05-14T20:54:00.677Z,87.60
2023-05-14T20:56:35.632Z,91.93
2023-05-14T20:59:12.899Z,95.13
2023-05-14T21:01:49.374Z,93.40
2023-05-14T21:04:24.178Z,83.20
2023-05-14T21:06:59.739Z,97.43
2023-05-14T21:09:34.028Z,94.27
2023-05-14T21:12:11.364Z,100.80
2023-05-14T21:14:47.284Z,96.13
2023-05-14T21:17:21.668Z,93.83
2023-05-14T21:19:55.559Z,110.63
2023-05-14T21:22:32.044Z,104.13
2023-05-14T21:25:07.794Z,104.63
2023-05-14T21:27:41.777Z,114.03
2023-05-14T21:30:16.434Z,111.73
2023-05-14T21:32:52.843Z,105.10
2023-05-14T21:35:29.541Z,101.47
2023-05-14T21:38:07.408Z,98.00
2023-05-14T21:40:43.808Z,102.40
2023-05-14T21:43:21.643Z,115.63
2023-05-14T21:45:55.993Z,105.93
2023-05-14T21:48:33.992Z,107.47
2023-05-14T21:51:08.965Z,93.57
2023-05-14T21:53:56.096Z,104.67
2023-05-14T21:56:29.715Z,107.47
2023-05-14T21:59:04.236Z,104.37
2023-05-14T22:02:04.875Z,102.53
2023-05-14T22:04:39.527Z,101.80
2023-05-14T22:07:15.381Z,103.37
2023-05-14T22:09:50.543Z,110.40
2023-05-14T22:12:26.556Z,97.60
2023-05-14T22:15:00.946Z,100.53
2023-05-14T22:17:36.339Z,102.77
2023-05-14T22:20:15.627Z,100.37
2023-05-14T22:22:52.152Z,98.20
2023-05-14T22:25:32.069Z,97.80
2023-05-14T22:28:08.093Z,106.53
2023-05-14T22:30:41.851Z,96.60
2023-05-14T22:33:16.609Z,96.73
2023-05-14T22:35:51.030Z,119.83
2023-05-14T22:38:28.220Z,94.33
2023-05-14T22:41:07.709Z,106.27
2023-05-14T22:43:44.066Z,100.90
2023-05-14T22:46:17.798Z,110.83
2023-05-14T22:48:53.350Z,109.70
2023-05-14T22:51:29.759Z,107.37
2023-05-14T22:54:04.126Z,104.60
2023-05-14T22:56:39.830Z,101.57
2023-05-14T22:59:13.023Z,99.43
2023-05-14T23:01:47.696Z,100.07
2023-05-14T23:04:21.961Z,99.97
2023-05-14T23:07:04.287Z,102.97
2023-05-14T23:09:42.806Z,109.83
2023-05-14T23:12:23.685Z,104.10
2023-05-14T23:15:00.240Z,107.93
2023-05-14T23:17:35.429Z,116.87
2023-05-14T23:20:12.081Z,111.67
2023-05-14T23:22:50.040Z,108.23
2023-05-14T23:25:33.089Z,103.53
2023-05-14T23:28:14.701Z,105.67
2023-05-14T23:30:51.618Z,106.73
2023-05-14T23:33:27.200Z,115.10
2023-05-14T23:36:02.599Z,106.13
2023-05-14T23:38:37.984Z,107.07
2023-05-14T23:41:13.796Z,108.40
2023-05-14T23:43:52.774Z,120.17
2023-05-14T23:46:30.586Z,107.83
2023-05-14T23:49:09.326Z,104.63
2023-05-14T23:51:45.775Z,100.43
2023-05-14T23:54:23.840Z,97.83
2023-05-14T23:57:08.946Z,99.43
2023-05-14T23:59:47.829Z,112.63
